»·PEaware :: SOO360 KEUG-KLAS

SOO360 :: KEUG-KLAS

FLIGHT INFORMATION

Flight Status: Arrived
Operator: Unknown
More flights by this operator :: More flights under this callsign
Pilot: Brandon G. (13)
Aircraft: BOEING 727-200
(B722)
More flights by this aircraft type
Origin: KEUG Mahlon Sweet
United States
Destination: KLAS McCarran Intl
United States
More flights between these airports :: More routes between these airports
Route: LMT J92 BTY SUNST4
File this flight plan on PilotEdge
Remarks:
Altitude:
(Current/Filed)
33,000ft
Speed:
(Current/Filed)
385kts
Departed: 08-Oct-18 08:34 PM
Arrived: 08-Oct-18 10:04 PM
Distance/Time
Traveled:
608nm/1:30
Distance/Time
To Go:
Arrived

Flight Plot

Page will automatically refresh every two minutes.

Flight plan parsing failed; only flown route is shown


Map Options




Map Legend


Flown Route
Filed Route
Departure Airport
Arrival Airport
Navaid (VOR, NDB)
Fix

Horizontal Profiles

Position Reports

Time Latitude Longitude Heading Altitude Ground
Speed
08-Oct-18 20:25 44.110698 -123.214948 0 376ft 0kts
08-Oct-18 20:26 44.110698 -123.214948 0 376ft 0kts
08-Oct-18 20:27 44.110698 -123.214948 0 376ft 0kts
08-Oct-18 20:28 44.110698 -123.214948 0 376ft 0kts
08-Oct-18 20:29 44.110698 -123.214948 0 376ft 0kts
08-Oct-18 20:30 44.110698 -123.214948 0 376ft 0kts
08-Oct-18 20:31 44.110698 -123.214947 359 376ft 0kts
08-Oct-18 20:32 44.110699 -123.214948 360 376ft 0kts
08-Oct-18 20:33 44.111598 -123.215221 323 376ft 10kts
08-Oct-18 20:34 44.113549 -123.217198 307 375ft 0kts
08-Oct-18 20:35 44.113620 -123.217464 285 374ft 7kts
08-Oct-18 20:36 44.130019 -123.219115 358 381ft 174kts
08-Oct-18 20:37 44.192901 -123.220346 356 3035ft 264kts
08-Oct-18 20:38 44.264553 -123.219267 17 7555ft 270kts
08-Oct-18 20:39 44.287970 -123.123163 116 9008ft 313kts
08-Oct-18 20:40 44.213835 -123.064991 153 11672ft 323kts
08-Oct-18 20:41 44.121791 -123.002559 153 13553ft 391kts
08-Oct-18 20:42 44.022962 -122.936232 154 16383ft 413kts
08-Oct-18 20:43 43.917889 -122.866082 154 18869ft 433kts
08-Oct-18 20:44 43.811502 -122.795361 154 20925ft 451kts
08-Oct-18 20:45 43.698219 -122.720344 154 22790ft 467kts
08-Oct-18 20:46 43.580096 -122.642457 154 24452ft 483kts
08-Oct-18 20:47 43.460898 -122.564205 154 25904ft 496kts
08-Oct-18 20:48 43.337192 -122.483352 154 27239ft 509kts
08-Oct-18 20:49 43.223715 -122.409506 154 28316ft 520kts
08-Oct-18 20:50 43.109804 -122.335676 155 29304ft 529kts
08-Oct-18 20:51 42.990292 -122.258612 155 30283ft 537kts
08-Oct-18 20:52 42.870953 -122.181946 154 31334ft 539kts
08-Oct-18 20:53 42.737371 -122.096449 154 32089ft 547kts
08-Oct-18 20:54 42.599795 -122.008868 155 32801ft 554kts
08-Oct-18 20:55 42.459946 -121.920318 155 33042ft 569kts
08-Oct-18 20:56 42.316172 -121.829698 155 33043ft 585kts
08-Oct-18 20:57 42.169282 -121.737501 153 33042ft 592kts
08-Oct-18 20:58 42.030921 -121.626475 147 33044ft 580kts
08-Oct-18 20:59 41.898341 -121.517479 147 33047ft 574kts
08-Oct-18 21:00 41.767680 -121.410558 147 33033ft 567kts
08-Oct-18 21:01 41.637047 -121.304155 148 33028ft 562kts
08-Oct-18 21:02 41.504635 -121.196850 148 33025ft 558kts
08-Oct-18 21:03 41.372951 -121.090624 148 33027ft 556kts
08-Oct-18 21:04 41.246759 -120.989330 147 33039ft 555kts
08-Oct-18 21:05 41.117750 -120.886217 147 33044ft 555kts
08-Oct-18 21:06 40.987439 -120.782578 147 33048ft 556kts
08-Oct-18 21:07 40.866062 -120.686450 147 33026ft 555kts
08-Oct-18 21:08 40.735508 -120.583538 147 33025ft 552kts
08-Oct-18 21:09 40.604618 -120.480827 147 33027ft 551kts
08-Oct-18 21:10 40.474496 -120.379187 147 33031ft 550kts
08-Oct-18 21:11 40.352197 -120.284093 148 33028ft 549kts
08-Oct-18 21:12 40.224560 -120.185286 148 33031ft 549kts
08-Oct-18 21:13 40.095575 -120.085878 148 33040ft 548kts
08-Oct-18 21:14 39.964922 -119.985612 148 33045ft 548kts
08-Oct-18 21:15 39.842150 -119.891825 148 33031ft 548kts
08-Oct-18 21:16 39.711701 -119.792613 148 33033ft 547kts
08-Oct-18 21:17 39.582194 -119.694522 148 33019ft 547kts
08-Oct-18 21:18 39.467328 -119.574073 132 33014ft 540kts
08-Oct-18 21:19 39.364522 -119.444363 131 33022ft 540kts
08-Oct-18 21:20 39.259612 -119.311963 132 33020ft 541kts
08-Oct-18 21:21 39.152672 -119.177640 132 33013ft 542kts
08-Oct-18 21:22 39.063140 -119.065640 132 33002ft 542kts
08-Oct-18 21:23 38.956040 -118.932264 132 33009ft 543kts
08-Oct-18 21:24 38.854140 -118.805834 132 33002ft 544kts
08-Oct-18 21:25 38.745675 -118.671839 132 33006ft 543kts
08-Oct-18 21:26 38.637298 -118.538557 132 33009ft 543kts
08-Oct-18 21:27 38.528633 -118.405517 132 33011ft 543kts
08-Oct-18 21:28 38.422394 -118.276011 132 33009ft 544kts
08-Oct-18 21:29 38.313058 -118.143311 132 33011ft 544kts
08-Oct-18 21:30 38.203734 -118.011206 132 33010ft 545kts
08-Oct-18 21:31 38.093895 -117.879051 132 33003ft 546kts
08-Oct-18 21:32 37.981787 -117.753242 141 32992ft 550kts
08-Oct-18 21:33 37.863412 -117.649457 143 32970ft 552kts
08-Oct-18 21:34 37.739684 -117.542826 143 32988ft 551kts
08-Oct-18 21:35 37.614627 -117.435504 143 32991ft 551kts
08-Oct-18 21:36 37.496323 -117.334397 143 32989ft 551kts
08-Oct-18 21:37 37.371671 -117.228293 143 32992ft 551kts
08-Oct-18 21:38 37.246582 -117.122248 143 32995ft 551kts
08-Oct-18 21:39 37.120295 -117.015640 143 32997ft 552kts
08-Oct-18 21:40 36.993977 -116.909415 143 33000ft 553kts
08-Oct-18 21:41 36.876290 -116.810847 143 33177ft 546kts
08-Oct-18 21:42 36.765796 -116.696360 127 31095ft 523kts
08-Oct-18 21:43 36.670927 -116.562641 126 28726ft 510kts
08-Oct-18 21:44 36.580252 -116.433974 126 26768ft 491kts
08-Oct-18 21:45 36.494749 -116.313028 127 24864ft 475kts
08-Oct-18 21:46 36.410388 -116.194144 127 22299ft 452kts
08-Oct-18 21:47 36.330370 -116.081757 127 19230ft 426kts
08-Oct-18 21:48 36.255372 -115.976750 128 16045ft 399kts
08-Oct-18 21:49 36.195710 -115.878930 110 16029ft 332kts
08-Oct-18 21:50 36.161522 -115.777657 107 14596ft 313kts
08-Oct-18 21:51 36.129596 -115.679124 108 12482ft 302kts
08-Oct-18 21:52 36.100164 -115.588200 108 11776ft 280kts
08-Oct-18 21:53 36.071725 -115.500447 108 10982ft 266kts
08-Oct-18 21:54 36.044121 -115.415387 108 10992ft 282kts
08-Oct-18 21:55 36.028281 -115.327416 93 10497ft 267kts
08-Oct-18 21:56 36.021373 -115.238898 93 9048ft 261kts
08-Oct-18 21:57 36.015485 -115.156678 92 8048ft 226kts
08-Oct-18 21:58 36.010264 -115.081282 93 6624ft 228kts
08-Oct-18 21:59 36.004856 -115.003381 93 5303ft 228kts
08-Oct-18 22:00 35.999357 -114.924519 93 5010ft 234kts
08-Oct-18 22:01 36.037523 -114.885562 347 5047ft 200kts
08-Oct-18 22:02 36.066020 -114.937871 295 4734ft 191kts
08-Oct-18 22:03 36.073662 -114.998703 271 4035ft 170kts
08-Oct-18 22:04 36.073527 -115.056235 271 3008ft 159kts
08-Oct-18 22:05 36.073683 -115.107293 270 2382ft 141kts
08-Oct-18 22:06 36.073683 -115.146861 274 2112ft 30kts
08-Oct-18 22:07 36.077596 -115.152623 356 2126ft 11kts
08-Oct-18 22:08 36.077877 -115.148710 95 2111ft 27kts
08-Oct-18 22:09 36.077545 -115.138057 89 2078ft 26kts
08-Oct-18 22:10 36.077555 -115.127252 89 2049ft 26kts
08-Oct-18 22:11 36.082362 -115.125832 86 2038ft 7kts
08-Oct-18 22:12 36.082366 -115.125732 86 2037ft 0kts
08-Oct-18 22:13 36.082366 -115.125732 86 2037ft 0kts

Navigation Log

Ident Type
Flight plan parsing failed, navigation log unavailable